ADDS METAR Data INFO
IDs: Format: Raw Decoded Include TAF

Data at: 1022 UTC 19 Nov 2017

METAR for:KFWA (Fort Wayne Intl, IN, US)
Text:KFWA 191004Z 27011KT 10SM BKN029 OVC035 04/00 A2983 RMK AO2 T00390000 $
Temperature: 3.9°C ( 39°F)
Dewpoint: 0.0°C ( 32°F) [RH = 76%]
Pressure (altimeter):29.83 inches Hg (1010.2 mb)
Winds:from the W (270 degrees) at 13 MPH (11 knots; 5.7 m/s)
Visibility:10 or more sm (16+ km)
Ceiling:2900 feet AGL
Clouds: broken clouds at 2900 feet AGL, overcast cloud deck at 3500 feet AGL
QC Flag:SOME DATA ABOVE MAY BE INACCURATE!!!"$" is an indication the sensor requires maintenance.